Aquone, North Carolina
Current Conditions -  °F | °C
As of 3:55 PM on Sunday 21 Dec 2014 (Local Time) from KRHP Reporting Station
Overcast Overcast  
Wind Chill: 10°   Ceiling: 3400
Heat Index: 10°   Visibility: 10mi
Dew Point:   Wind: 0mph
Humidity: 66%   Direction: NA
Pressure: 30.09"   Gusts: NA
Location:  35.2235°N, 83.6438°W
Report Text: KRHP 212055Z AUTO 00000KT 10SM OVC034 10/04 A3009 RMK AO2 T01020042
Loading
Personal Weather Stations






























Interactive Weather Map New forecast layout! Learn more

10-Day Weather Forecast

Advertisements
Track Severe Weather on mobile